createdAt,value
2018-08-22T00:01:12.267Z,67.61
2018-08-22T00:02:12.285Z,67.42
2018-08-22T00:04:05.211Z,67.42
2018-08-22T00:05:05.233Z,67.52
2018-08-22T00:06:58.153Z,67.52
2018-08-22T00:07:58.168Z,67.52
2018-08-22T00:09:51.091Z,67.52
2018-08-22T00:10:51.106Z,67.90
2018-08-22T00:12:44.021Z,67.61
2018-08-22T00:13:44.042Z,67.29
2018-08-22T00:15:36.964Z,68.06
2018-08-22T00:16:36.979Z,68.16
2018-08-22T00:18:29.894Z,68.06
2018-08-22T00:19:29.914Z,68.26
2018-08-22T00:21:22.836Z,68.06
2018-08-22T00:22:22.858Z,67.97
2018-08-22T00:24:15.762Z,68.06
2018-08-22T00:25:15.832Z,67.87
2018-08-22T00:27:08.710Z,67.97
2018-08-22T00:28:08.730Z,67.77
2018-08-22T00:30:01.650Z,68.06
2018-08-22T00:31:01.670Z,68.44
2018-08-22T00:32:54.579Z,68.84
2018-08-22T00:33:54.603Z,68.35
2018-08-22T00:35:47.520Z,68.54
2018-08-22T00:36:47.536Z,68.74
2018-08-22T00:38:40.450Z,68.84
2018-08-22T00:39:40.475Z,68.93
2018-08-22T00:41:33.393Z,69.70
2018-08-22T00:42:33.408Z,69.67
2018-08-22T00:44:26.317Z,69.57
2018-08-22T00:45:26.346Z,69.47
2018-08-22T00:47:19.285Z,69.76
2018-08-22T00:48:19.284Z,69.76
2018-08-22T00:50:12.225Z,70.05
2018-08-22T00:51:12.230Z,70.24
2018-08-22T00:53:06.138Z,69.85
2018-08-22T00:54:06.162Z,69.95
2018-08-22T00:55:59.085Z,70.15
2018-08-22T00:56:59.101Z,70.34
2018-08-22T00:58:52.016Z,70.34
2018-08-22T00:59:52.039Z,70.34
2018-08-22T01:01:44.963Z,70.05
2018-08-22T01:02:44.977Z,70.05
2018-08-22T01:04:37.890Z,70.34
2018-08-22T01:05:37.915Z,70.34
2018-08-22T01:07:30.839Z,70.34
2018-08-22T01:08:30.850Z,70.43
2018-08-22T01:10:23.772Z,70.53
2018-08-22T01:11:23.788Z,70.53
2018-08-22T01:13:16.697Z,70.15
2018-08-22T01:14:16.722Z,70.43
2018-08-22T01:16:09.642Z,70.43
2018-08-22T01:17:09.655Z,70.62
2018-08-22T01:19:02.566Z,71.36
2018-08-22T01:20:02.590Z,70.98
2018-08-22T01:21:55.505Z,71.20
2018-08-22T01:22:55.526Z,70.98
2018-08-22T01:24:48.441Z,71.08
2018-08-22T01:25:48.464Z,71.26
2018-08-22T01:27:41.379Z,71.55
2018-08-22T01:28:41.395Z,71.26
2018-08-22T01:30:34.316Z,70.82
2018-08-22T01:31:34.331Z,70.62
2018-08-22T01:33:27.241Z,70.88
2018-08-22T01:34:27.265Z,71.26
2018-08-22T01:36:20.214Z,71.17
2018-08-22T01:37:20.211Z,70.98
2018-08-22T01:39:13.128Z,71.46
2018-08-22T01:40:13.148Z,71.08
2018-08-22T01:42:06.074Z,71.20
2018-08-22T01:43:06.089Z,70.62
2018-08-22T01:44:59.005Z,70.62
2018-08-22T01:45:59.033Z,70.34
2018-08-22T01:47:51.949Z,70.05
2018-08-22T01:48:51.964Z,70.15
2018-08-22T01:50:44.901Z,69.95
2018-08-22T01:51:44.918Z,70.15
2018-08-22T01:53:37.826Z,69.95
2018-08-22T01:54:37.850Z,69.95
2018-08-22T01:56:30.771Z,69.95
2018-08-22T01:57:30.784Z,69.28
2018-08-22T01:59:23.698Z,69.38
2018-08-22T02:00:23.722Z,69.85
2018-08-22T02:02:16.641Z,69.95
2018-08-22T02:03:16.656Z,69.95
2018-08-22T02:05:09.572Z,69.95
2018-08-22T02:06:09.596Z,69.67
2018-08-22T02:08:02.515Z,70.24
2018-08-22T02:09:02.531Z,70.15
2018-08-22T02:10:55.452Z,70.05
2018-08-22T02:11:55.468Z,70.05
2018-08-22T02:13:48.381Z,69.41
2018-08-22T02:14:48.407Z,69.31
2018-08-22T02:16:42.323Z,69.31
2018-08-22T02:17:42.337Z,68.93
2018-08-22T02:19:35.250Z,69.12
2018-08-22T02:20:35.265Z,68.93
2018-08-22T02:22:28.195Z,68.54
2018-08-22T02:23:28.223Z,69.22
2018-08-22T02:25:21.121Z,69.02
2018-08-22T02:26:21.146Z,68.35
2018-08-22T02:28:14.087Z,68.77
2018-08-22T02:29:14.109Z,68.68
2018-08-22T02:31:07.035Z,68.77
2018-08-22T02:32:07.041Z,68.68
2018-08-22T02:33:59.956Z,68.77
2018-08-22T02:34:59.987Z,68.68
2018-08-22T02:36:52.906Z,68.68
2018-08-22T02:37:52.921Z,68.68
2018-08-22T02:39:45.829Z,68.29
2018-08-22T02:40:45.853Z,68.29
2018-08-22T02:42:38.775Z,68.58
2018-08-22T02:43:38.790Z,67.81
2018-08-22T02:45:31.709Z,68.00
2018-08-22T02:46:31.727Z,68.38
2018-08-22T02:48:24.650Z,67.71
2018-08-22T02:49:24.662Z,68.29
2018-08-22T02:51:17.584Z,67.90
2018-08-22T02:52:17.600Z,67.55
2018-08-22T02:54:10.513Z,67.36
2018-08-22T02:55:10.536Z,67.36
2018-08-22T02:57:03.457Z,67.26
2018-08-22T02:58:03.473Z,67.36
2018-08-22T02:59:56.386Z,67.26
2018-08-22T03:00:56.410Z,67.36
2018-08-22T03:02:49.330Z,67.84
2018-08-22T03:03:49.346Z,67.52
2018-08-22T03:05:42.269Z,68.04
2018-08-22T03:06:42.285Z,67.71
2018-08-22T03:08:35.232Z,67.33
2018-08-22T03:09:35.228Z,67.46
2018-08-22T03:11:28.174Z,67.23
2018-08-22T03:12:28.164Z,67.46
2018-08-22T03:14:21.077Z,66.88
2018-08-22T03:15:21.098Z,67.36
2018-08-22T03:17:14.021Z,66.97
2018-08-22T03:18:14.037Z,66.39
2018-08-22T03:20:06.954Z,66.97
2018-08-22T03:21:06.974Z,66.88
2018-08-22T03:22:59.896Z,66.78
2018-08-22T03:23:59.912Z,66.39
2018-08-22T03:25:52.832Z,66.11
2018-08-22T03:26:52.847Z,66.97
2018-08-22T03:28:45.779Z,67.16
2018-08-22T03:29:45.797Z,66.97
2018-08-22T03:31:38.742Z,66.78
2018-08-22T03:32:38.750Z,66.59
2018-08-22T03:34:31.687Z,66.69
2018-08-22T03:35:31.711Z,66.59
2018-08-22T03:37:24.633Z,66.88
2018-08-22T03:38:24.657Z,66.97
2018-08-22T03:40:17.562Z,66.69
2018-08-22T03:41:17.584Z,66.88
2018-08-22T03:43:10.506Z,66.59
2018-08-22T03:44:10.520Z,66.69
2018-08-22T03:46:03.435Z,67.07
2018-08-22T03:47:03.460Z,66.97
2018-08-22T03:48:56.382Z,67.07
2018-08-22T03:49:56.399Z,66.69
2018-08-22T03:51:49.326Z,66.59
2018-08-22T03:52:49.341Z,66.88
2018-08-22T03:54:42.263Z,66.69
2018-08-22T03:55:42.288Z,66.59
2018-08-22T03:57:35.215Z,66.88
2018-08-22T03:58:35.222Z,66.88
2018-08-22T04:00:28.133Z,67.07
2018-08-22T04:01:28.158Z,66.49
2018-08-22T04:03:21.081Z,66.88
2018-08-22T04:04:21.098Z,66.69
2018-08-22T04:06:14.012Z,66.88
2018-08-22T04:07:14.036Z,66.97
2018-08-22T04:09:06.955Z,66.97
2018-08-22T04:10:06.973Z,66.69
2018-08-22T04:11:59.904Z,66.39
2018-08-22T04:12:59.908Z,66.69
2018-08-22T04:14:52.845Z,66.20
2018-08-22T04:15:52.848Z,66.59
2018-08-22T04:17:45.769Z,66.59
2018-08-22T04:18:45.787Z,66.59
2018-08-22T04:20:38.706Z,66.69
2018-08-22T04:21:38.734Z,66.97
2018-08-22T04:23:31.654Z,67.16
2018-08-22T04:24:31.669Z,67.16
2018-08-22T04:26:24.583Z,66.97
2018-08-22T04:27:24.603Z,67.26
2018-08-22T04:29:17.532Z,67.07
2018-08-22T04:30:17.549Z,67.26
2018-08-22T04:32:10.466Z,67.07
2018-08-22T04:33:10.488Z,66.97
2018-08-22T04:35:03.597Z,67.26
2018-08-22T04:36:03.615Z,67.26
2018-08-22T04:37:56.537Z,66.97
2018-08-22T04:38:56.554Z,67.07
2018-08-22T04:40:49.464Z,66.97
2018-08-22T04:41:49.493Z,67.07
2018-08-22T04:43:42.411Z,67.07
2018-08-22T04:44:42.427Z,66.97
2018-08-22T04:46:35.342Z,67.07
2018-08-22T04:47:35.363Z,67.07
2018-08-22T04:49:28.287Z,66.69
2018-08-22T04:50:28.304Z,66.59
2018-08-22T04:52:21.227Z,66.49
2018-08-22T04:53:21.253Z,66.59
2018-08-22T04:55:14.167Z,66.69
2018-08-22T04:56:14.192Z,66.97
2018-08-22T04:58:07.147Z,66.78
2018-08-22T04:59:07.131Z,66.91
2018-08-22T05:01:00.056Z,67.07
2018-08-22T05:02:00.067Z,66.97
2018-08-22T05:03:52.987Z,66.59
2018-08-22T05:04:53.001Z,66.49
2018-08-22T05:06:45.917Z,66.82
2018-08-22T05:07:45.941Z,67.10
2018-08-22T05:09:38.864Z,66.91
2018-08-22T05:10:38.880Z,66.43
2018-08-22T05:12:31.794Z,66.52
2018-08-22T05:13:31.821Z,65.85
2018-08-22T05:15:24.741Z,66.24
2018-08-22T05:16:24.768Z,65.85
2018-08-22T05:18:17.682Z,66.46
2018-08-22T05:19:17.700Z,66.27
2018-08-22T05:21:10.615Z,65.59
2018-08-22T05:22:10.639Z,65.88
2018-08-22T05:24:03.563Z,65.98
2018-08-22T05:25:03.578Z,65.98
2018-08-22T05:26:56.497Z,65.01
2018-08-22T05:27:56.520Z,65.30
2018-08-22T05:29:49.443Z,64.72
2018-08-22T05:30:49.459Z,65.01
2018-08-22T05:32:42.536Z,65.01
2018-08-22T05:33:42.566Z,64.82
2018-08-22T05:35:35.486Z,64.66
2018-08-22T05:36:35.504Z,64.86
2018-08-22T05:38:28.425Z,64.86
2018-08-22T05:39:28.444Z,64.76
2018-08-22T05:41:21.358Z,64.56
2018-08-22T05:42:21.384Z,64.37
2018-08-22T05:44:14.308Z,63.40
2018-08-22T05:45:14.324Z,63.31
2018-08-22T05:47:07.258Z,63.50
2018-08-22T05:48:07.278Z,63.40
2018-08-22T05:50:00.206Z,63.12
2018-08-22T05:51:00.221Z,63.31
2018-08-22T05:52:53.135Z,63.40
2018-08-22T05:53:53.161Z,62.28
2018-08-22T05:55:46.112Z,63.43
2018-08-22T05:56:46.104Z,62.95
2018-08-22T05:58:39.026Z,62.57
2018-08-22T05:59:39.044Z,62.28
2018-08-22T06:01:32.184Z,62.28
2018-08-22T06:02:32.210Z,62.40
2018-08-22T06:04:25.134Z,62.02
2018-08-22T06:05:25.149Z,61.73
2018-08-22T06:07:18.068Z,61.44
2018-08-22T06:08:18.093Z,60.96
2018-08-22T06:10:11.020Z,61.34
2018-08-22T06:11:11.037Z,60.79
2018-08-22T06:13:03.956Z,60.50
2018-08-22T06:14:03.979Z,60.41
2018-08-22T06:15:56.911Z,60.53
2018-08-22T06:16:56.932Z,60.08
2018-08-22T06:18:49.859Z,57.50
2018-08-22T06:19:49.877Z,57.11
2018-08-22T06:21:42.794Z,56.46
2018-08-22T06:22:42.829Z,56.36
2018-08-22T06:24:35.770Z,55.06
2018-08-22T06:25:35.824Z,54.09
2018-08-22T06:27:28.698Z,53.05
2018-08-22T06:28:28.724Z,53.83
2018-08-22T06:30:21.655Z,52.30
2018-08-22T06:31:21.678Z,51.14
2018-08-22T06:33:14.594Z,51.06
2018-08-22T06:34:14.619Z,51.35
2018-08-22T06:36:07.551Z,50.31
2018-08-22T06:37:07.581Z,49.92
2018-08-22T06:39:00.500Z,49.92
2018-08-22T06:40:00.528Z,49.15
2018-08-22T06:41:53.455Z,49.73
2018-08-22T06:42:53.485Z,50.31
2018-08-22T06:44:46.416Z,50.94
2018-08-22T06:45:46.442Z,50.77
2018-08-22T06:47:39.361Z,49.99
2018-08-22T06:48:39.395Z,51.26
2018-08-22T06:50:32.321Z,51.65
2018-08-22T06:51:32.346Z,50.58
2018-08-22T06:53:25.265Z,49.82
2018-08-22T06:54:25.309Z,49.92
2018-08-22T06:56:18.226Z,49.44
2018-08-22T06:57:18.250Z,49.44
2018-08-22T06:59:11.177Z,50.02
2018-08-22T07:00:11.201Z,49.54
2018-08-22T07:02:04.121Z,50.04
2018-08-22T07:03:04.156Z,49.44
2018-08-22T07:04:57.089Z,50.29
2018-08-22T07:05:57.111Z,50.29
2018-08-22T07:07:50.078Z,50.87
2018-08-22T07:08:50.065Z,50.87
2018-08-22T07:10:42.996Z,50.29
2018-08-22T07:11:43.019Z,50.96
2018-08-22T07:13:35.939Z,51.09
2018-08-22T07:14:35.972Z,51.09
2018-08-22T07:16:28.896Z,50.41
2018-08-22T07:17:28.917Z,49.99
2018-08-22T07:19:22.057Z,51.65
2018-08-22T07:20:22.073Z,52.11
2018-08-22T07:22:14.999Z,52.52
2018-08-22T07:23:15.027Z,52.72
2018-08-22T07:25:07.958Z,52.42
2018-08-22T07:26:07.981Z,51.93
2018-08-22T07:28:00.899Z,52.23
2018-08-22T07:29:00.924Z,52.72
2018-08-22T07:30:53.860Z,52.23
2018-08-22T07:31:53.880Z,52.03
2018-08-22T07:33:47.019Z,50.80
2018-08-22T07:34:47.049Z,50.09
2018-08-22T07:36:39.981Z,50.99
2018-08-22T07:37:39.998Z,51.48
2018-08-22T07:39:32.927Z,50.89
2018-08-22T07:40:32.950Z,50.02
2018-08-22T07:42:25.892Z,50.31
2018-08-22T07:43:25.922Z,50.02
2018-08-22T07:45:18.849Z,50.12
2018-08-22T07:46:18.870Z,50.31
2018-08-22T07:48:11.793Z,51.18
2018-08-22T07:49:11.817Z,50.99
2018-08-22T07:51:04.777Z,51.18
2018-08-22T07:52:04.777Z,50.02
2018-08-22T07:53:57.697Z,50.41
2018-08-22T07:54:57.725Z,50.31
2018-08-22T07:56:50.656Z,49.66
2018-08-22T07:57:50.678Z,49.66
2018-08-22T07:59:43.605Z,49.56
2018-08-22T08:00:43.623Z,48.78
2018-08-22T08:02:36.551Z,49.00
2018-08-22T08:03:36.580Z,49.17
2018-08-22T08:05:29.565Z,49.29
2018-08-22T08:06:29.531Z,48.10
2018-08-22T08:08:22.451Z,49.10
2018-08-22T08:09:22.484Z,49.00
2018-08-22T08:11:15.414Z,48.00
2018-08-22T08:12:15.434Z,48.30
2018-08-22T08:14:08.352Z,48.10
2018-08-22T08:15:08.386Z,48.78
2018-08-22T08:17:01.378Z,47.74
2018-08-22T08:18:01.337Z,47.71
2018-08-22T08:19:54.284Z,48.10
2018-08-22T08:20:54.284Z,48.68
2018-08-22T08:22:47.202Z,48.90
2018-08-22T08:23:47.251Z,48.51
2018-08-22T08:25:40.164Z,47.54
2018-08-22T08:26:40.186Z,48.71
2018-08-22T08:28:33.119Z,47.27
2018-08-22T08:29:33.142Z,46.98
2018-08-22T08:31:26.085Z,47.10
2018-08-22T08:32:26.104Z,47.20
2018-08-22T08:34:19.027Z,46.03
2018-08-22T08:35:19.062Z,45.64
2018-08-22T08:37:12.136Z,45.84
2018-08-22T08:38:12.158Z,45.64
2018-08-22T08:40:05.081Z,45.94
2018-08-22T08:41:05.113Z,46.23
2018-08-22T08:42:58.036Z,46.51
2018-08-22T08:43:58.060Z,46.54
2018-08-22T08:45:51.014Z,45.95
2018-08-22T08:46:51.016Z,46.34
2018-08-22T08:48:43.936Z,46.15
2018-08-22T08:49:43.972Z,45.39
2018-08-22T08:51:36.895Z,45.28
2018-08-22T08:52:36.923Z,45.20
2018-08-22T08:54:29.851Z,45.00
2018-08-22T08:55:29.871Z,44.64
2018-08-22T08:57:22.858Z,44.54
2018-08-22T08:58:22.826Z,44.93
2018-08-22T09:00:15.743Z,45.03
2018-08-22T09:01:15.777Z,44.64
2018-08-22T09:03:08.712Z,44.54
2018-08-22T09:04:08.735Z,44.44
2018-08-22T09:06:01.667Z,44.34
2018-08-22T09:07:01.685Z,43.68
2018-08-22T09:08:54.610Z,43.18
2018-08-22T09:09:54.640Z,43.66
2018-08-22T09:11:47.571Z,44.64
2018-08-22T09:12:47.593Z,44.05
2018-08-22T09:14:40.513Z,44.15
2018-08-22T09:15:40.642Z,43.76
2018-08-22T09:17:33.491Z,44.64
2018-08-22T09:18:33.499Z,44.24
2018-08-22T09:20:26.418Z,44.15
2018-08-22T09:21:26.485Z,44.05
2018-08-22T09:23:19.381Z,43.39
2018-08-22T09:24:19.411Z,43.29
2018-08-22T09:26:12.335Z,42.80
2018-08-22T09:27:12.355Z,42.40
2018-08-22T09:29:05.284Z,41.93
2018-08-22T09:30:05.309Z,42.22
2018-08-22T09:31:58.244Z,42.71
2018-08-22T09:32:58.262Z,42.12
2018-08-22T09:34:51.190Z,42.12
2018-08-22T09:35:51.212Z,41.93
2018-08-22T09:37:44.145Z,42.51
2018-08-22T09:38:44.170Z,42.41
2018-08-22T09:40:37.094Z,41.93
2018-08-22T09:41:37.125Z,41.05
2018-08-22T09:43:30.058Z,42.12
2018-08-22T09:44:30.078Z,41.93
2018-08-22T09:46:23.026Z,41.73
2018-08-22T09:47:23.053Z,41.46
2018-08-22T09:49:16.003Z,40.78
2018-08-22T09:50:16.003Z,40.48
2018-08-22T09:52:08.934Z,39.80
2018-08-22T09:53:08.956Z,38.63
2018-08-22T09:55:01.890Z,38.73
2018-08-22T09:56:01.912Z,39.41
2018-08-22T09:57:54.845Z,39.31
2018-08-22T09:58:54.875Z,39.80
2018-08-22T10:00:47.811Z,38.63
2018-08-22T10:01:47.826Z,38.73
2018-08-22T10:03:40.752Z,37.29
2018-08-22T10:04:40.776Z,37.67
2018-08-22T10:06:33.841Z,37.09
2018-08-22T10:07:33.809Z,37.01
2018-08-22T10:09:26.651Z,35.84
2018-08-22T10:10:26.690Z,35.55
2018-08-22T10:12:19.618Z,34.48
2018-08-22T10:13:19.638Z,34.58
2018-08-22T10:15:12.567Z,35.07
2018-08-22T10:16:12.602Z,34.88
2018-08-22T10:18:05.716Z,34.31
2018-08-22T10:19:05.773Z,33.23
2018-08-22T10:20:58.663Z,33.33
2018-08-22T10:21:58.694Z,33.04
2018-08-22T10:23:51.627Z,33.25
2018-08-22T10:24:51.649Z,33.33
2018-08-22T10:26:44.584Z,33.33
2018-08-22T10:27:44.615Z,33.33
2018-08-22T10:29:37.530Z,34.29
2018-08-22T10:30:37.558Z,34.19
2018-08-22T10:32:30.497Z,34.86
2018-08-22T10:33:30.537Z,35.72
2018-08-22T10:35:23.441Z,35.92
2018-08-22T10:36:23.470Z,36.60
2018-08-22T10:38:16.404Z,36.70
2018-08-22T10:39:16.435Z,36.02
2018-08-22T10:41:09.351Z,35.82
2018-08-22T10:42:09.384Z,36.41
2018-08-22T10:44:02.328Z,35.74
2018-08-22T10:45:02.339Z,35.45
2018-08-22T10:46:55.291Z,34.86
2018-08-22T10:47:55.358Z,35.27
2018-08-22T10:49:48.223Z,35.75
2018-08-22T10:50:48.253Z,35.28
2018-08-22T10:52:41.201Z,34.03
2018-08-22T10:53:41.227Z,33.25
2018-08-22T10:55:34.154Z,33.72
2018-08-22T10:56:34.182Z,34.01
2018-08-22T10:58:27.133Z,34.52
2018-08-22T10:59:27.157Z,34.81
2018-08-22T11:01:20.087Z,33.56
2018-08-22T11:02:20.119Z,33.65
2018-08-22T11:04:13.050Z,32.87
2018-08-22T11:05:13.074Z,33.15
2018-08-22T11:07:06.003Z,33.05
2018-08-22T11:08:06.033Z,33.15
2018-08-22T11:09:59.102Z,32.94
2018-08-22T11:10:59.003Z,33.33
2018-08-22T11:12:51.941Z,33.43
2018-08-22T11:13:51.948Z,33.15
2018-08-22T11:15:45.164Z,33.05
2018-08-22T11:16:45.136Z,33.05
2018-08-22T11:18:38.069Z,33.45
2018-08-22T11:19:38.091Z,33.46
2018-08-22T11:21:31.032Z,33.26
2018-08-22T11:22:31.123Z,32.89
2018-08-22T11:24:24.032Z,31.71
2018-08-22T11:25:24.052Z,31.70
2018-08-22T11:27:16.983Z,32.99
2018-08-22T11:28:17.011Z,32.89
2018-08-22T11:30:09.948Z,32.99
2018-08-22T11:31:09.969Z,32.81
2018-08-22T11:33:02.936Z,32.42
2018-08-22T11:34:02.927Z,32.34
2018-08-22T11:35:55.857Z,31.34
2018-08-22T11:36:55.886Z,31.44
2018-08-22T11:38:48.822Z,32.70
2018-08-22T11:39:48.853Z,32.81
2018-08-22T11:41:41.777Z,32.01
2018-08-22T11:42:41.810Z,31.71
2018-08-22T11:44:34.757Z,31.81
2018-08-22T11:45:34.767Z,31.62
2018-08-22T11:47:27.697Z,31.81
2018-08-22T11:48:27.729Z,31.81
2018-08-22T11:50:20.665Z,32.20
2018-08-22T11:51:20.686Z,31.81
2018-08-22T11:53:13.630Z,32.40
2018-08-22T11:54:13.648Z,32.68
2018-08-22T11:56:06.659Z,32.48
2018-08-22T11:57:06.608Z,32.58
2018-08-22T11:58:59.567Z,32.60
2018-08-22T11:59:59.590Z,32.89
2018-08-22T12:01:52.538Z,32.99
2018-08-22T12:02:52.555Z,32.60
2018-08-22T12:04:45.489Z,32.71
2018-08-22T12:05:45.530Z,32.51
2018-08-22T12:07:38.438Z,32.82
2018-08-22T12:08:38.471Z,31.86
2018-08-22T12:10:31.423Z,31.48
2018-08-22T12:11:31.425Z,30.90
2018-08-22T12:13:24.359Z,30.70
2018-08-22T12:14:24.390Z,30.91
2018-08-22T12:16:17.420Z,30.12
2018-08-22T12:17:17.350Z,29.44
2018-08-22T12:19:10.298Z,29.63
2018-08-22T12:20:10.323Z,29.93
2018-08-22T12:22:03.257Z,30.32
2018-08-22T12:23:03.320Z,30.02
2018-08-22T12:24:56.236Z,30.71
2018-08-22T12:25:56.256Z,29.83
2018-08-22T12:27:49.188Z,31.09
2018-08-22T12:28:49.222Z,31.09
2018-08-22T12:30:42.165Z,31.30
2018-08-22T12:31:42.185Z,30.91
2018-08-22T12:33:35.123Z,30.32
2018-08-22T12:34:35.167Z,30.02
2018-08-22T12:36:28.091Z,29.24
2018-08-22T12:37:28.111Z,29.83
2018-08-22T12:39:21.055Z,30.42
2018-08-22T12:40:21.084Z,30.02
2018-08-22T12:42:14.013Z,30.50
2018-08-22T12:43:14.048Z,30.80
2018-08-22T12:45:06.981Z,31.47
2018-08-22T12:46:07.002Z,31.96
2018-08-22T12:47:59.932Z,31.27
2018-08-22T12:48:59.967Z,31.86
2018-08-22T12:50:52.904Z,31.07
2018-08-22T12:51:52.929Z,30.78
2018-08-22T12:53:45.855Z,31.57
2018-08-22T12:54:45.886Z,30.78
2018-08-22T12:56:38.838Z,31.55
2018-08-22T12:57:38.850Z,31.45
2018-08-22T12:59:31.792Z,31.74
2018-08-22T13:00:31.813Z,31.83
2018-08-22T13:02:24.741Z,32.51
2018-08-22T13:03:24.774Z,32.42
2018-08-22T13:05:17.713Z,32.34
2018-08-22T13:06:17.735Z,31.93
2018-08-22T13:08:10.667Z,32.12
2018-08-22T13:09:10.699Z,32.42
2018-08-22T13:11:04.160Z,32.50
2018-08-22T13:12:04.160Z,31.83
2018-08-22T13:13:57.088Z,32.60
2018-08-22T13:14:57.119Z,32.51
2018-08-22T13:16:50.063Z,32.51
2018-08-22T13:17:50.088Z,32.61
2018-08-22T13:19:43.058Z,32.53
2018-08-22T13:20:43.036Z,31.57
2018-08-22T13:22:35.973Z,31.37
2018-08-22T13:23:35.997Z,31.07
2018-08-22T13:25:28.936Z,30.98
2018-08-22T13:26:28.963Z,31.47
2018-08-22T13:28:21.890Z,30.68
2018-08-22T13:29:21.921Z,30.37
2018-08-22T13:31:14.872Z,29.88
2018-08-22T13:32:14.886Z,30.57
2018-08-22T13:34:08.566Z,31.45
2018-08-22T13:35:08.600Z,31.27
2018-08-22T13:37:01.538Z,31.17
2018-08-22T13:38:01.564Z,30.78
2018-08-22T13:39:54.496Z,31.27
2018-08-22T13:40:54.525Z,31.17
2018-08-22T13:42:47.453Z,30.68
2018-08-22T13:43:47.494Z,30.49
2018-08-22T13:45:40.448Z,31.16
2018-08-22T13:46:40.456Z,31.27
2018-08-22T13:48:33.371Z,30.98
2018-08-22T13:49:33.402Z,30.68
2018-08-22T13:51:26.367Z,30.40
2018-08-22T13:52:26.363Z,30.01
2018-08-22T13:54:19.296Z,29.50
2018-08-22T13:55:19.325Z,30.39
2018-08-22T13:57:12.285Z,30.49
2018-08-22T13:58:13.670Z,29.91
2018-08-22T14:00:09.824Z,29.91
2018-08-22T14:01:05.269Z,30.50
2018-08-22T14:02:58.240Z,30.70
2018-08-22T14:03:58.956Z,31.19
2018-08-22T14:05:51.212Z,30.71
2018-08-22T14:06:51.236Z,29.93
2018-08-22T14:08:44.165Z,28.86
2018-08-22T14:09:44.195Z,28.86
2018-08-22T14:11:37.139Z,28.88
2018-08-22T14:12:37.159Z,27.78
2018-08-22T14:14:30.083Z,27.40
2018-08-22T14:15:30.122Z,27.80
2018-08-22T14:17:23.210Z,27.31
2018-08-22T14:18:23.105Z,27.60
2018-08-22T14:20:16.047Z,27.11
2018-08-22T14:21:16.070Z,27.70
2018-08-22T14:23:08.999Z,27.70
2018-08-22T14:24:09.032Z,27.31
2018-08-22T14:26:02.599Z,27.42
2018-08-22T14:27:02.523Z,27.42
2018-08-22T14:28:54.944Z,26.53
2018-08-22T14:29:54.979Z,26.43
2018-08-22T14:31:47.917Z,27.23
2018-08-22T14:32:47.941Z,27.33
2018-08-22T14:34:40.881Z,26.73
2018-08-22T14:35:40.912Z,26.53
2018-08-22T14:37:34.038Z,26.92
2018-08-22T14:38:34.062Z,27.12
2018-08-22T14:40:27.009Z,27.02
2018-08-22T14:41:27.034Z,27.60
2018-08-22T14:43:19.973Z,27.80
2018-08-22T14:44:20.001Z,27.70
2018-08-22T14:46:12.938Z,27.11
2018-08-22T14:47:12.961Z,27.49
2018-08-22T14:49:05.900Z,27.69
2018-08-22T14:50:05.935Z,28.08
2018-08-22T14:51:58.863Z,27.97
2018-08-22T14:52:58.891Z,29.05
2018-08-22T14:54:51.824Z,28.93
2018-08-22T14:55:51.923Z,28.74
2018-08-22T14:57:45.886Z,28.82
2018-08-22T14:58:45.911Z,29.60
2018-08-22T15:00:38.861Z,29.80
2018-08-22T15:01:38.887Z,29.98
2018-08-22T15:03:31.968Z,30.37
2018-08-22T15:04:31.849Z,30.77
2018-08-22T15:06:24.788Z,30.47
2018-08-22T15:07:24.814Z,30.10
2018-08-22T15:09:17.739Z,30.37
2018-08-22T15:10:17.772Z,30.00
2018-08-22T15:12:10.709Z,30.57
2018-08-22T15:13:10.743Z,31.06
2018-08-22T15:15:03.859Z,31.24
2018-08-22T15:16:03.896Z,31.14
2018-08-22T15:17:56.839Z,31.44
2018-08-22T15:18:56.861Z,31.63
2018-08-22T15:20:49.799Z,31.63
2018-08-22T15:21:49.819Z,31.34
2018-08-22T15:23:42.745Z,31.73
2018-08-22T15:24:42.777Z,31.73
2018-08-22T15:26:35.735Z,31.63
2018-08-22T15:27:35.737Z,31.65
2018-08-22T15:29:28.666Z,31.44
2018-08-22T15:30:28.702Z,31.54
2018-08-22T15:32:21.637Z,31.63
2018-08-22T15:33:21.655Z,31.54
2018-08-22T15:35:14.587Z,31.24
2018-08-22T15:36:14.615Z,31.54
2018-08-22T15:38:07.555Z,31.63
2018-08-22T15:39:07.579Z,31.24
2018-08-22T15:41:00.580Z,31.44
2018-08-22T15:42:00.609Z,31.24
2018-08-22T15:43:53.515Z,31.62
2018-08-22T15:44:53.493Z,31.93
2018-08-22T15:46:46.429Z,32.32
2018-08-22T15:47:46.463Z,31.83
2018-08-22T15:49:39.380Z,31.65
2018-08-22T15:50:39.412Z,31.26
2018-08-22T15:52:32.350Z,31.26
2018-08-22T15:53:32.377Z,30.98
2018-08-22T15:55:25.301Z,31.07
2018-08-22T15:56:25.334Z,30.39
2018-08-22T15:58:18.266Z,30.37
2018-08-22T15:59:18.284Z,30.37
2018-08-22T16:01:11.230Z,30.65
2018-08-22T16:02:11.248Z,31.34
2018-08-22T16:04:04.177Z,31.24
2018-08-22T16:05:04.206Z,30.75
2018-08-22T16:06:57.147Z,30.85
2018-08-22T16:07:57.173Z,31.44
2018-08-22T16:09:50.110Z,31.44
2018-08-22T16:10:50.136Z,31.54
2018-08-22T16:12:43.072Z,31.44
2018-08-22T16:13:43.098Z,31.26
2018-08-22T16:15:36.030Z,31.35
2018-08-22T16:16:36.055Z,30.77
2018-08-22T16:18:28.994Z,30.47
2018-08-22T16:19:29.015Z,30.57
2018-08-22T16:21:21.953Z,30.96
2018-08-22T16:22:21.976Z,31.44
2018-08-22T16:24:15.035Z,31.63
2018-08-22T16:25:14.968Z,31.73
2018-08-22T16:27:07.868Z,31.73
2018-08-22T16:28:07.900Z,31.63
2018-08-22T16:30:00.990Z,31.63
2018-08-22T16:31:01.032Z,31.73
2018-08-22T16:32:54.135Z,31.83
2018-08-22T16:33:54.152Z,31.73
2018-08-22T16:35:47.097Z,32.50
2018-08-22T16:36:47.117Z,32.32
2018-08-22T16:38:40.064Z,32.20
2018-08-22T16:39:40.089Z,32.40
2018-08-22T16:41:33.048Z,32.61
2018-08-22T16:42:33.343Z,32.60
2018-08-22T16:44:26.006Z,32.60
2018-08-22T16:45:26.023Z,32.99
2018-08-22T16:47:18.966Z,32.79
2018-08-22T16:48:18.980Z,32.50
2018-08-22T16:50:11.969Z,32.71
2018-08-22T16:51:12.002Z,32.30
2018-08-22T16:53:04.961Z,32.89
2018-08-22T16:54:04.959Z,32.60
2018-08-22T16:55:57.934Z,32.78
2018-08-22T16:56:57.942Z,33.07
2018-08-22T16:58:50.923Z,33.46
2018-08-22T16:59:50.948Z,33.17
2018-08-22T17:01:43.931Z,33.26
2018-08-22T17:02:43.903Z,33.75
2018-08-22T17:04:36.836Z,34.03
2018-08-22T17:05:36.866Z,34.33
2018-08-22T17:07:29.807Z,34.13
2018-08-22T17:08:29.830Z,34.23
2018-08-22T17:10:22.757Z,34.33
2018-08-22T17:11:22.787Z,34.62
2018-08-22T17:13:15.723Z,34.33
2018-08-22T17:14:15.746Z,34.33
2018-08-22T17:16:08.672Z,34.33
2018-08-22T17:17:08.701Z,34.44
2018-08-22T17:19:01.637Z,34.34
2018-08-22T17:20:01.659Z,34.34
2018-08-22T17:21:54.585Z,34.83
2018-08-22T17:22:54.619Z,34.93
2018-08-22T17:24:47.552Z,34.54
2018-08-22T17:25:47.572Z,34.64
2018-08-22T17:27:40.505Z,34.44
2018-08-22T17:28:40.529Z,34.34
2018-08-22T17:30:33.500Z,34.33
2018-08-22T17:31:33.485Z,34.42
2018-08-22T17:33:26.422Z,34.91
2018-08-22T17:34:26.444Z,34.91
2018-08-22T17:36:19.370Z,35.11
2018-08-22T17:37:19.401Z,34.89
2018-08-22T17:39:12.334Z,35.28
2018-08-22T17:40:12.351Z,35.38
2018-08-22T17:42:05.282Z,35.85
2018-08-22T17:43:05.317Z,36.24
2018-08-22T17:44:58.247Z,36.34
2018-08-22T17:45:58.273Z,36.43
2018-08-22T17:47:51.267Z,36.63
2018-08-22T17:48:51.227Z,36.83
2018-08-22T17:50:44.150Z,37.21
2018-08-22T17:51:44.181Z,37.30
2018-08-22T17:53:37.114Z,37.70
2018-08-22T17:54:37.138Z,37.70
2018-08-22T17:56:30.062Z,37.87
2018-08-22T17:57:30.095Z,37.96
2018-08-22T17:59:23.024Z,38.55
2018-08-22T18:00:23.047Z,38.55
2018-08-22T18:02:15.972Z,38.84
2018-08-22T18:03:16.002Z,38.84
2018-08-22T18:05:08.935Z,38.84
2018-08-22T18:06:08.958Z,39.31
2018-08-22T18:08:01.897Z,39.12
2018-08-22T18:09:01.910Z,39.41
2018-08-22T18:10:54.837Z,39.41
2018-08-22T18:11:54.873Z,39.90
2018-08-22T18:13:47.828Z,40.00
2018-08-22T18:14:47.823Z,40.47
2018-08-22T18:16:40.746Z,40.56
2018-08-22T18:17:40.774Z,40.66
2018-08-22T18:19:33.704Z,41.35
2018-08-22T18:20:33.729Z,41.32
2018-08-22T18:22:26.799Z,41.71
2018-08-22T18:23:26.829Z,41.52
2018-08-22T18:25:19.762Z,42.10
2018-08-22T18:26:19.784Z,42.10
2018-08-22T18:28:12.719Z,42.59
2018-08-22T18:29:12.738Z,42.40
2018-08-22T18:31:05.667Z,42.96
2018-08-22T18:32:05.694Z,42.86
2018-08-22T18:33:58.638Z,43.05